sensor_id;sensor_type;location;lat;lon;timestamp;temperature;humidity
58517;DHT22;44308;50.810;0.284;2022-07-23T00:02:07;16.10;99.90
58517;DHT22;44308;50.810;0.284;2022-07-23T00:04:33;16.00;99.90
58517;DHT22;44308;50.810;0.284;2022-07-23T00:06:59;15.90;99.90
58517;DHT22;44308;50.810;0.284;2022-07-23T00:09:25;15.80;99.90
58517;DHT22;44308;50.810;0.284;2022-07-23T00:11:52;15.80;99.90
58517;DHT22;44308;50.810;0.284;2022-07-23T00:14:17;15.70;99.90
58517;DHT22;44308;50.810;0.284;2022-07-23T00:16:43;15.70;99.90
58517;DHT22;44308;50.810;0.284;2022-07-23T00:19:09;15.70;99.90
58517;DHT22;44308;50.810;0.284;2022-07-23T00:21:35;15.70;99.90
58517;DHT22;44308;50.810;0.284;2022-07-23T00:24:00;15.60;99.90
58517;DHT22;44308;50.810;0.284;2022-07-23T00:26:26;15.60;99.90
58517;DHT22;44308;50.810;0.284;2022-07-23T00:28:52;15.60;99.90
58517;DHT22;44308;50.810;0.284;2022-07-23T00:31:18;15.60;99.90
58517;DHT22;44308;50.810;0.284;2022-07-23T00:33:43;15.60;99.90
58517;DHT22;44308;50.810;0.284;2022-07-23T00:36:09;15.60;99.90
58517;DHT22;44308;50.810;0.284;2022-07-23T00:38:37;15.60;99.90
58517;DHT22;44308;50.810;0.284;2022-07-23T00:41:03;15.50;99.90
58517;DHT22;44308;50.810;0.284;2022-07-23T00:43:29;15.50;99.90
58517;DHT22;44308;50.810;0.284;2022-07-23T00:45:54;15.40;99.90
58517;DHT22;44308;50.810;0.284;2022-07-23T00:48:21;15.40;99.90
58517;DHT22;44308;50.810;0.284;2022-07-23T00:50:46;15.40;99.90
58517;DHT22;44308;50.810;0.284;2022-07-23T00:53:12;15.40;99.90
58517;DHT22;44308;50.810;0.284;2022-07-23T00:55:39;15.40;99.90
58517;DHT22;44308;50.810;0.284;2022-07-23T00:58:05;15.40;99.90
58517;DHT22;44308;50.810;0.284;2022-07-23T01:00:31;15.50;99.90
58517;DHT22;44308;50.810;0.284;2022-07-23T01:02:57;15.50;99.90
58517;DHT22;44308;50.810;0.284;2022-07-23T01:05:23;15.50;99.90
58517;DHT22;44308;50.810;0.284;2022-07-23T01:07:51;15.50;99.90
58517;DHT22;44308;50.810;0.284;2022-07-23T01:10:17;15.50;99.90
58517;DHT22;44308;50.810;0.284;2022-07-23T01:13:08;15.60;99.90
58517;DHT22;44308;50.810;0.284;2022-07-23T01:15:36;15.50;99.90
58517;DHT22;44308;50.810;0.284;2022-07-23T01:18:07;15.50;99.90
58517;DHT22;44308;50.810;0.284;2022-07-23T01:20:34;15.50;99.90
58517;DHT22;44308;50.810;0.284;2022-07-23T01:23:00;15.50;99.90
58517;DHT22;44308;50.810;0.284;2022-07-23T01:25:26;15.50;99.90
58517;DHT22;44308;50.810;0.284;2022-07-23T01:27:53;15.50;99.90
58517;DHT22;44308;50.810;0.284;2022-07-23T01:30:19;15.50;99.90
58517;DHT22;44308;50.810;0.284;2022-07-23T01:32:48;15.50;99.90
58517;DHT22;44308;50.810;0.284;2022-07-23T01:35:14;15.40;99.90
58517;DHT22;44308;50.810;0.284;2022-07-23T01:37:40;15.30;99.90
58517;DHT22;44308;50.810;0.284;2022-07-23T01:40:07;15.30;99.90
58517;DHT22;44308;50.810;0.284;2022-07-23T01:42:33;15.20;99.90
58517;DHT22;44308;50.810;0.284;2022-07-23T01:44:59;15.20;99.90
58517;DHT22;44308;50.810;0.284;2022-07-23T01:47:25;15.10;99.90
58517;DHT22;44308;50.810;0.284;2022-07-23T01:49:51;15.00;99.90
58517;DHT22;44308;50.810;0.284;2022-07-23T01:52:17;15.00;99.90
58517;DHT22;44308;50.810;0.284;2022-07-23T01:54:43;15.00;99.90
58517;DHT22;44308;50.810;0.284;2022-07-23T01:57:09;15.00;99.90
58517;DHT22;44308;50.810;0.284;2022-07-23T01:59:35;15.00;99.90
58517;DHT22;44308;50.810;0.284;2022-07-23T02:02:01;15.00;99.90
58517;DHT22;44308;50.810;0.284;2022-07-23T02:04:29;15.00;99.90
58517;DHT22;44308;50.810;0.284;2022-07-23T02:06:55;15.00;99.90
58517;DHT22;44308;50.810;0.284;2022-07-23T02:09:21;15.00;99.90
58517;DHT22;44308;50.810;0.284;2022-07-23T02:11:48;14.90;99.90
58517;DHT22;44308;50.810;0.284;2022-07-23T02:14:13;14.90;99.90
58517;DHT22;44308;50.810;0.284;2022-07-23T02:16:39;14.90;99.90
58517;DHT22;44308;50.810;0.284;2022-07-23T02:19:09;14.80;99.90
58517;DHT22;44308;50.810;0.284;2022-07-23T02:21:35;14.80;99.90
58517;DHT22;44308;50.810;0.284;2022-07-23T02:24:01;14.80;99.90
58517;DHT22;44308;50.810;0.284;2022-07-23T02:26:27;14.70;99.90
58517;DHT22;44308;50.810;0.284;2022-07-23T02:28:53;14.70;99.90
58517;DHT22;44308;50.810;0.284;2022-07-23T02:31:20;14.70;99.90
58517;DHT22;44308;50.810;0.284;2022-07-23T02:33:45;14.70;99.90
58517;DHT22;44308;50.810;0.284;2022-07-23T02:36:11;14.70;99.90
58517;DHT22;44308;50.810;0.284;2022-07-23T02:38:38;14.80;99.90
58517;DHT22;44308;50.810;0.284;2022-07-23T02:41:04;14.80;99.90
58517;DHT22;44308;50.810;0.284;2022-07-23T02:43:30;14.80;99.90
58517;DHT22;44308;50.810;0.284;2022-07-23T02:45:55;14.80;99.90
58517;DHT22;44308;50.810;0.284;2022-07-23T02:48:23;14.80;99.90
58517;DHT22;44308;50.810;0.284;2022-07-23T02:50:49;14.90;99.90
58517;DHT22;44308;50.810;0.284;2022-07-23T02:53:15;14.90;99.90
58517;DHT22;44308;50.810;0.284;2022-07-23T02:55:40;14.90;99.90
58517;DHT22;44308;50.810;0.284;2022-07-23T02:58:06;14.90;99.90
58517;DHT22;44308;50.810;0.284;2022-07-23T03:00:32;15.00;99.90
58517;DHT22;44308;50.810;0.284;2022-07-23T03:02:58;15.00;99.90
58517;DHT22;44308;50.810;0.284;2022-07-23T03:05:26;15.00;99.90
58517;DHT22;44308;50.810;0.284;2022-07-23T03:07:54;15.10;99.90
58517;DHT22;44308;50.810;0.284;2022-07-23T03:10:20;15.10;99.90
58517;DHT22;44308;50.810;0.284;2022-07-23T03:12:46;15.10;99.90
58517;DHT22;44308;50.810;0.284;2022-07-23T03:15:11;15.10;99.90
58517;DHT22;44308;50.810;0.284;2022-07-23T03:17:37;15.10;99.90
58517;DHT22;44308;50.810;0.284;2022-07-23T03:20:03;15.20;99.90
58517;DHT22;44308;50.810;0.284;2022-07-23T03:22:29;15.20;99.90
58517;DHT22;44308;50.810;0.284;2022-07-23T03:24:55;15.20;99.90
58517;DHT22;44308;50.810;0.284;2022-07-23T03:27:25;15.20;99.90
58517;DHT22;44308;50.810;0.284;2022-07-23T03:29:57;15.30;99.90
58517;DHT22;44308;50.810;0.284;2022-07-23T03:32:23;15.30;99.90
58517;DHT22;44308;50.810;0.284;2022-07-23T03:34:50;15.30;99.90
58517;DHT22;44308;50.810;0.284;2022-07-23T03:37:17;15.30;99.90
58517;DHT22;44308;50.810;0.284;2022-07-23T03:39:43;15.40;99.90
58517;DHT22;44308;50.810;0.284;2022-07-23T03:42:09;15.40;99.90
58517;DHT22;44308;50.810;0.284;2022-07-23T03:44:35;15.40;99.90
58517;DHT22;44308;50.810;0.284;2022-07-23T03:50:45;15.40;99.90
58517;DHT22;44308;50.810;0.284;2022-07-23T03:53:11;15.30;99.90
58517;DHT22;44308;50.810;0.284;2022-07-23T03:55:36;15.30;99.90
58517;DHT22;44308;50.810;0.284;2022-07-23T03:58:02;15.20;99.90
58517;DHT22;44308;50.810;0.284;2022-07-23T04:00:28;15.30;99.90
58517;DHT22;44308;50.810;0.284;2022-07-23T04:02:54;15.20;99.90
58517;DHT22;44308;50.810;0.284;2022-07-23T04:05:19;15.20;99.90
58517;DHT22;44308;50.810;0.284;2022-07-23T04:07:45;15.20;99.90
58517;DHT22;44308;50.810;0.284;2022-07-23T04:10:11;15.30;99.90
58517;DHT22;44308;50.810;0.284;2022-07-23T04:12:37;15.30;99.90
58517;DHT22;44308;50.810;0.284;2022-07-23T04:15:03;15.30;99.90
58517;DHT22;44308;50.810;0.284;2022-07-23T04:17:30;15.30;99.90
58517;DHT22;44308;50.810;0.284;2022-07-23T04:19:56;15.20;99.90
58517;DHT22;44308;50.810;0.284;2022-07-23T04:22:21;15.20;99.90
58517;DHT22;44308;50.810;0.284;2022-07-23T04:24:47;15.20;99.90
58517;DHT22;44308;50.810;0.284;2022-07-23T04:27:16;15.20;99.90
58517;DHT22;44308;50.810;0.284;2022-07-23T04:29:41;15.20;99.90
58517;DHT22;44308;50.810;0.284;2022-07-23T04:32:07;15.20;99.90
58517;DHT22;44308;50.810;0.284;2022-07-23T04:34:33;15.20;99.90
58517;DHT22;44308;50.810;0.284;2022-07-23T04:37:01;15.20;99.90
58517;DHT22;44308;50.810;0.284;2022-07-23T04:39:27;15.20;99.90
58517;DHT22;44308;50.810;0.284;2022-07-23T04:41:52;15.20;99.90
58517;DHT22;44308;50.810;0.284;2022-07-23T04:44:18;15.20;99.90
58517;DHT22;44308;50.810;0.284;2022-07-23T04:46:44;15.10;99.90
58517;DHT22;44308;50.810;0.284;2022-07-23T04:49:09;15.10;99.90
58517;DHT22;44308;50.810;0.284;2022-07-23T04:51:35;15.10;99.90
58517;DHT22;44308;50.810;0.284;2022-07-23T04:54:01;15.10;99.90
58517;DHT22;44308;50.810;0.284;2022-07-23T04:56:27;15.10;99.90
58517;DHT22;44308;50.810;0.284;2022-07-23T04:58:54;15.10;99.90
58517;DHT22;44308;50.810;0.284;2022-07-23T05:01:20;15.10;99.90
58517;DHT22;44308;50.810;0.284;2022-07-23T05:03:45;15.20;99.90
58517;DHT22;44308;50.810;0.284;2022-07-23T05:06:14;15.20;99.90
58517;DHT22;44308;50.810;0.284;2022-07-23T05:08:40;15.20;99.90
58517;DHT22;44308;50.810;0.284;2022-07-23T05:11:05;15.20;99.90
58517;DHT22;44308;50.810;0.284;2022-07-23T05:13:31;15.20;99.90
58517;DHT22;44308;50.810;0.284;2022-07-23T05:15:57;15.20;99.90
58517;DHT22;44308;50.810;0.284;2022-07-23T05:18:23;15.20;99.90
58517;DHT22;44308;50.810;0.284;2022-07-23T05:20:49;15.30;99.90
58517;DHT22;44308;50.810;0.284;2022-07-23T05:23:14;15.30;99.90
58517;DHT22;44308;50.810;0.284;2022-07-23T05:25:40;15.30;99.90
58517;DHT22;44308;50.810;0.284;2022-07-23T05:28:06;15.30;99.90
58517;DHT22;44308;50.810;0.284;2022-07-23T05:30:32;15.40;99.90
58517;DHT22;44308;50.810;0.284;2022-07-23T05:32:57;15.40;99.90
58517;DHT22;44308;50.810;0.284;2022-07-23T05:35:23;15.40;99.90
58517;DHT22;44308;50.810;0.284;2022-07-23T05:38:09;15.50;99.90
58517;DHT22;44308;50.810;0.284;2022-07-23T05:40:35;15.60;99.90
58517;DHT22;44308;50.810;0.284;2022-07-23T05:43:01;15.70;99.90
58517;DHT22;44308;50.810;0.284;2022-07-23T05:45:26;15.80;99.90
58517;DHT22;44308;50.810;0.284;2022-07-23T05:47:59;15.90;99.90
58517;DHT22;44308;50.810;0.284;2022-07-23T05:50:24;16.10;99.90
58517;DHT22;44308;50.810;0.284;2022-07-23T05:52:50;16.20;99.90
58517;DHT22;44308;50.810;0.284;2022-07-23T05:55:16;16.30;99.90
58517;DHT22;44308;50.810;0.284;2022-07-23T05:57:42;16.30;99.90
58517;DHT22;44308;50.810;0.284;2022-07-23T06:00:09;16.50;99.90
58517;DHT22;44308;50.810;0.284;2022-07-23T06:02:36;16.60;99.90
58517;DHT22;44308;50.810;0.284;2022-07-23T06:05:02;16.70;99.90
58517;DHT22;44308;50.810;0.284;2022-07-23T06:07:28;16.80;99.90
58517;DHT22;44308;50.810;0.284;2022-07-23T06:09:54;17.00;99.90
58517;DHT22;44308;50.810;0.284;2022-07-23T06:12:22;17.10;99.90
58517;DHT22;44308;50.810;0.284;2022-07-23T06:14:50;17.10;99.90
58517;DHT22;44308;50.810;0.284;2022-07-23T06:17:18;17.20;99.90
58517;DHT22;44308;50.810;0.284;2022-07-23T06:19:43;17.30;99.90
58517;DHT22;44308;50.810;0.284;2022-07-23T06:22:09;17.30;99.90
58517;DHT22;44308;50.810;0.284;2022-07-23T06:24:35;17.40;99.90
58517;DHT22;44308;50.810;0.284;2022-07-23T06:27:01;17.60;99.90
58517;DHT22;44308;50.810;0.284;2022-07-23T06:29:27;17.70;99.90
58517;DHT22;44308;50.810;0.284;2022-07-23T06:31:52;17.90;99.90
58517;DHT22;44308;50.810;0.284;2022-07-23T06:34:18;18.40;99.90
58517;DHT22;44308;50.810;0.284;2022-07-23T06:40:25;20.30;99.90
58517;DHT22;44308;50.810;0.284;2022-07-23T06:42:51;21.60;99.90
58517;DHT22;44308;50.810;0.284;2022-07-23T06:45:17;22.40;99.90
58517;DHT22;44308;50.810;0.284;2022-07-23T06:47:44;23.00;99.90
58517;DHT22;44308;50.810;0.284;2022-07-23T06:50:10;23.90;99.90
58517;DHT22;44308;50.810;0.284;2022-07-23T06:52:36;24.70;99.90
58517;DHT22;44308;50.810;0.284;2022-07-23T06:55:02;24.60;99.90
58517;DHT22;44308;50.810;0.284;2022-07-23T06:57:28;25.30;99.90
58517;DHT22;44308;50.810;0.284;2022-07-23T06:59:54;25.70;99.90
58517;DHT22;44308;50.810;0.284;2022-07-23T07:02:20;25.90;99.90
58517;DHT22;44308;50.810;0.284;2022-07-23T07:04:45;26.10;99.90
58517;DHT22;44308;50.810;0.284;2022-07-23T07:07:11;26.20;99.90
58517;DHT22;44308;50.810;0.284;2022-07-23T07:09:38;26.30;99.90
58517;DHT22;44308;50.810;0.284;2022-07-23T07:12:04;26.60;99.90
58517;DHT22;44308;50.810;0.284;2022-07-23T07:14:30;26.70;99.90
58517;DHT22;44308;50.810;0.284;2022-07-23T07:16:56;27.30;99.90
58517;DHT22;44308;50.810;0.284;2022-07-23T07:19:21;27.50;99.90
58517;DHT22;44308;50.810;0.284;2022-07-23T07:21:47;27.20;99.90
58517;DHT22;44308;50.810;0.284;2022-07-23T07:24:13;27.00;99.90
58517;DHT22;44308;50.810;0.284;2022-07-23T07:26:39;27.10;99.90
58517;DHT22;44308;50.810;0.284;2022-07-23T07:29:06;27.40;99.90
58517;DHT22;44308;50.810;0.284;2022-07-23T07:31:32;27.70;99.90
58517;DHT22;44308;50.810;0.284;2022-07-23T07:33:58;28.00;99.90
58517;DHT22;44308;50.810;0.284;2022-07-23T07:36:23;28.10;99.90
58517;DHT22;44308;50.810;0.284;2022-07-23T07:38:49;28.10;99.90
58517;DHT22;44308;50.810;0.284;2022-07-23T07:41:15;28.20;99.90
58517;DHT22;44308;50.810;0.284;2022-07-23T07:43:41;28.30;99.90
58517;DHT22;44308;50.810;0.284;2022-07-23T07:46:07;28.60;99.90
58517;DHT22;44308;50.810;0.284;2022-07-23T07:48:39;28.80;99.90
58517;DHT22;44308;50.810;0.284;2022-07-23T07:51:05;29.00;99.90
58517;DHT22;44308;50.810;0.284;2022-07-23T07:53:31;29.00;99.90
58517;DHT22;44308;50.810;0.284;2022-07-23T07:55:57;29.20;99.90
58517;DHT22;44308;50.810;0.284;2022-07-23T07:58:23;29.20;99.90
58517;DHT22;44308;50.810;0.284;2022-07-23T08:00:49;29.30;99.90
58517;DHT22;44308;50.810;0.284;2022-07-23T08:03:16;29.40;99.90
58517;DHT22;44308;50.810;0.284;2022-07-23T08:05:42;29.20;99.90
58517;DHT22;44308;50.810;0.284;2022-07-23T08:08:08;29.60;99.90
58517;DHT22;44308;50.810;0.284;2022-07-23T08:10:40;29.30;99.90
58517;DHT22;44308;50.810;0.284;2022-07-23T08:13:06;29.30;99.90
58517;DHT22;44308;50.810;0.284;2022-07-23T08:15:32;29.60;99.90
58517;DHT22;44308;50.810;0.284;2022-07-23T08:17:58;29.50;99.90
58517;DHT22;44308;50.810;0.284;2022-07-23T08:20:24;29.50;99.90
58517;DHT22;44308;50.810;0.284;2022-07-23T08:25:29;29.80;99.90
58517;DHT22;44308;50.810;0.284;2022-07-23T08:30:43;29.80;99.90
58517;DHT22;44308;50.810;0.284;2022-07-23T08:33:14;30.00;99.90
58517;DHT22;44308;50.810;0.284;2022-07-23T08:35:43;30.00;99.90
58517;DHT22;44308;50.810;0.284;2022-07-23T08:38:14;30.20;99.90
58517;DHT22;44308;50.810;0.284;2022-07-23T08:40:43;29.80;99.90
58517;DHT22;44308;50.810;0.284;2022-07-23T08:43:14;29.10;99.90
58517;DHT22;44308;50.810;0.284;2022-07-23T08:45:43;28.10;99.90
58517;DHT22;44308;50.810;0.284;2022-07-23T08:51:17;26.30;99.90
58517;DHT22;44308;50.810;0.284;2022-07-23T08:53:44;25.40;99.90
58517;DHT22;44308;50.810;0.284;2022-07-23T08:56:11;25.30;99.90
58517;DHT22;44308;50.810;0.284;2022-07-23T08:58:38;25.80;99.90
58517;DHT22;44308;50.810;0.284;2022-07-23T09:01:03;26.00;99.90
58517;DHT22;44308;50.810;0.284;2022-07-23T09:03:32;25.70;99.90
58517;DHT22;44308;50.810;0.284;2022-07-23T09:05:58;25.60;99.90
58517;DHT22;44308;50.810;0.284;2022-07-23T09:08:47;25.40;99.90
58517;DHT22;44308;50.810;0.284;2022-07-23T09:11:16;25.10;99.90
58517;DHT22;44308;50.810;0.284;2022-07-23T09:13:50;25.40;99.90
58517;DHT22;44308;50.810;0.284;2022-07-23T09:16:30;26.40;99.90
58517;DHT22;44308;50.810;0.284;2022-07-23T09:19:01;27.30;99.90
58517;DHT22;44308;50.810;0.284;2022-07-23T09:21:35;28.60;99.90
58517;DHT22;44308;50.810;0.284;2022-07-23T09:24:12;30.20;99.90
58517;DHT22;44308;50.810;0.284;2022-07-23T09:26:44;31.00;99.90
58517;DHT22;44308;50.810;0.284;2022-07-23T09:29:23;30.50;99.90
58517;DHT22;44308;50.810;0.284;2022-07-23T09:34:32;30.80;99.90
58517;DHT22;44308;50.810;0.284;2022-07-23T09:37:14;30.10;99.90
58517;DHT22;44308;50.810;0.284;2022-07-23T09:39:41;30.10;99.90
58517;DHT22;44308;50.810;0.284;2022-07-23T09:42:18;30.30;99.90
58517;DHT22;44308;50.810;0.284;2022-07-23T09:44:49;30.30;99.90
58517;DHT22;44308;50.810;0.284;2022-07-23T09:47:16;30.10;99.90
58517;DHT22;44308;50.810;0.284;2022-07-23T09:50:09;29.40;99.90
58517;DHT22;44308;50.810;0.284;2022-07-23T09:52:46;29.30;99.90
58517;DHT22;44308;50.810;0.284;2022-07-23T09:55:14;28.90;99.90
58517;DHT22;44308;50.810;0.284;2022-07-23T09:57:41;28.90;99.90
58517;DHT22;44308;50.810;0.284;2022-07-23T10:00:09;29.00;99.90
58517;DHT22;44308;50.810;0.284;2022-07-23T10:02:36;29.30;99.90
58517;DHT22;44308;50.810;0.284;2022-07-23T10:05:03;29.60;99.90
58517;DHT22;44308;50.810;0.284;2022-07-23T10:07:32;29.90;99.90
58517;DHT22;44308;50.810;0.284;2022-07-23T10:10:00;29.80;99.90
58517;DHT22;44308;50.810;0.284;2022-07-23T10:12:26;29.80;99.90
58517;DHT22;44308;50.810;0.284;2022-07-23T10:14:52;29.70;99.90
58517;DHT22;44308;50.810;0.284;2022-07-23T10:17:18;29.40;99.90
58517;DHT22;44308;50.810;0.284;2022-07-23T10:19:44;29.50;99.90
58517;DHT22;44308;50.810;0.284;2022-07-23T10:22:15;29.60;99.90
58517;DHT22;44308;50.810;0.284;2022-07-23T10:27:37;29.10;99.90
58517;DHT22;44308;50.810;0.284;2022-07-23T10:33:15;28.90;99.90
58517;DHT22;44308;50.810;0.284;2022-07-23T10:35:50;28.80;99.90
58517;DHT22;44308;50.810;0.284;2022-07-23T10:38:24;29.00;99.90
58517;DHT22;44308;50.810;0.284;2022-07-23T10:43:26;28.60;99.90
58517;DHT22;44308;50.810;0.284;2022-07-23T10:45:53;28.80;99.90
58517;DHT22;44308;50.810;0.284;2022-07-23T10:48:24;28.80;99.90
58517;DHT22;44308;50.810;0.284;2022-07-23T10:51:13;29.00;99.90
58517;DHT22;44308;50.810;0.284;2022-07-23T10:53:59;29.20;99.90
58517;DHT22;44308;50.810;0.284;2022-07-23T10:56:51;29.10;99.90
58517;DHT22;44308;50.810;0.284;2022-07-23T10:59:30;28.70;99.90
58517;DHT22;44308;50.810;0.284;2022-07-23T11:02:22;28.50;99.90
58517;DHT22;44308;50.810;0.284;2022-07-23T11:04:50;28.50;99.90
58517;DHT22;44308;50.810;0.284;2022-07-23T11:07:17;28.70;99.90
58517;DHT22;44308;50.810;0.284;2022-07-23T11:09:43;28.90;99.90
58517;DHT22;44308;50.810;0.284;2022-07-23T11:15:11;28.00;99.90
58517;DHT22;44308;50.810;0.284;2022-07-23T11:17:59;27.20;99.90
58517;DHT22;44308;50.810;0.284;2022-07-23T11:20:28;27.10;99.90
58517;DHT22;44308;50.810;0.284;2022-07-23T11:23:01;27.30;99.90
58517;DHT22;44308;50.810;0.284;2022-07-23T11:25:33;26.70;99.90
58517;DHT22;44308;50.810;0.284;2022-07-23T11:28:11;26.80;99.90
58517;DHT22;44308;50.810;0.284;2022-07-23T11:30:44;26.70;99.90
58517;DHT22;44308;50.810;0.284;2022-07-23T11:35:39;26.90;99.90
58517;DHT22;44308;50.810;0.284;2022-07-23T11:38:20;26.20;99.90
58517;DHT22;44308;50.810;0.284;2022-07-23T11:40:56;26.50;99.90
58517;DHT22;44308;50.810;0.284;2022-07-23T11:43:28;25.90;99.90
58517;DHT22;44308;50.810;0.284;2022-07-23T11:45:58;25.80;99.90
58517;DHT22;44308;50.810;0.284;2022-07-23T11:48:26;26.10;99.90
58517;DHT22;44308;50.810;0.284;2022-07-23T11:50:54;26.20;99.90
58517;DHT22;44308;50.810;0.284;2022-07-23T11:53:30;26.00;99.90
58517;DHT22;44308;50.810;0.284;2022-07-23T11:56:07;26.50;99.90
58517;DHT22;44308;50.810;0.284;2022-07-23T11:58:33;26.70;99.90
58517;DHT22;44308;50.810;0.284;2022-07-23T12:00:59;26.90;99.90
58517;DHT22;44308;50.810;0.284;2022-07-23T12:03:25;27.20;99.90
58517;DHT22;44308;50.810;0.284;2022-07-23T12:05:56;27.10;99.90
58517;DHT22;44308;50.810;0.284;2022-07-23T12:08:22;26.70;99.90
58517;DHT22;44308;50.810;0.284;2022-07-23T12:10:48;26.50;99.90
58517;DHT22;44308;50.810;0.284;2022-07-23T12:13:18;26.30;99.90
58517;DHT22;44308;50.810;0.284;2022-07-23T12:15:50;26.20;99.90
58517;DHT22;44308;50.810;0.284;2022-07-23T12:18:23;26.00;99.90
58517;DHT22;44308;50.810;0.284;2022-07-23T12:20:52;26.10;99.90
58517;DHT22;44308;50.810;0.284;2022-07-23T12:23:21;26.10;99.90
58517;DHT22;44308;50.810;0.284;2022-07-23T12:25:49;26.30;99.90
58517;DHT22;44308;50.810;0.284;2022-07-23T12:30:50;26.40;99.90
58517;DHT22;44308;50.810;0.284;2022-07-23T12:35:54;26.40;99.90
58517;DHT22;44308;50.810;0.284;2022-07-23T12:38:22;26.50;99.90
58517;DHT22;44308;50.810;0.284;2022-07-23T12:40:49;26.60;99.90
58517;DHT22;44308;50.810;0.284;2022-07-23T12:43:25;26.20;99.90
58517;DHT22;44308;50.810;0.284;2022-07-23T12:48:26;26.50;99.90
58517;DHT22;44308;50.810;0.284;2022-07-23T12:51:25;26.50;99.90
58517;DHT22;44308;50.810;0.284;2022-07-23T12:53:59;26.00;99.90
58517;DHT22;44308;50.810;0.284;2022-07-23T12:56:31;25.60;99.90
58517;DHT22;44308;50.810;0.284;2022-07-23T13:01:39;26.40;99.90
58517;DHT22;44308;50.810;0.284;2022-07-23T13:04:13;26.80;99.90
58517;DHT22;44308;50.810;0.284;2022-07-23T13:06:52;27.00;99.90
58517;DHT22;44308;50.810;0.284;2022-07-23T13:09:21;27.20;99.90
58517;DHT22;44308;50.810;0.284;2022-07-23T13:11:48;27.00;99.90
58517;DHT22;44308;50.810;0.284;2022-07-23T13:14:16;26.70;99.90
58517;DHT22;44308;50.810;0.284;2022-07-23T13:16:43;26.90;99.90
58517;DHT22;44308;50.810;0.284;2022-07-23T13:19:09;26.80;99.90
58517;DHT22;44308;50.810;0.284;2022-07-23T13:21:35;26.50;99.90
58517;DHT22;44308;50.810;0.284;2022-07-23T13:24:03;26.90;99.90
58517;DHT22;44308;50.810;0.284;2022-07-23T13:26:29;26.70;99.90
58517;DHT22;44308;50.810;0.284;2022-07-23T13:28:55;26.90;99.90
58517;DHT22;44308;50.810;0.284;2022-07-23T13:31:21;26.80;99.90
58517;DHT22;44308;50.810;0.284;2022-07-23T13:33:47;27.00;99.90
58517;DHT22;44308;50.810;0.284;2022-07-23T13:36:13;26.90;99.90
58517;DHT22;44308;50.810;0.284;2022-07-23T13:38:42;26.30;99.90
58517;DHT22;44308;50.810;0.284;2022-07-23T13:41:08;26.20;99.90
58517;DHT22;44308;50.810;0.284;2022-07-23T13:43:36;26.10;99.90
58517;DHT22;44308;50.810;0.284;2022-07-23T13:46:02;26.20;99.90
58517;DHT22;44308;50.810;0.284;2022-07-23T13:48:27;26.20;99.90
58517;DHT22;44308;50.810;0.284;2022-07-23T13:50:54;25.70;99.90
58517;DHT22;44308;50.810;0.284;2022-07-23T13:53:22;25.20;99.90
58517;DHT22;44308;50.810;0.284;2022-07-23T13:55:51;25.00;99.90
58517;DHT22;44308;50.810;0.284;2022-07-23T13:58:17;24.90;99.90
58517;DHT22;44308;50.810;0.284;2022-07-23T14:00:46;25.00;99.90
58517;DHT22;44308;50.810;0.284;2022-07-23T14:03:13;24.90;99.90
58517;DHT22;44308;50.810;0.284;2022-07-23T14:05:39;25.10;99.90
58517;DHT22;44308;50.810;0.284;2022-07-23T14:08:05;25.40;99.90
58517;DHT22;44308;50.810;0.284;2022-07-23T14:10:31;25.60;99.90
58517;DHT22;44308;50.810;0.284;2022-07-23T14:12:57;25.70;99.90
58517;DHT22;44308;50.810;0.284;2022-07-23T14:15:26;25.30;99.90
58517;DHT22;44308;50.810;0.284;2022-07-23T14:17:52;24.60;99.90
58517;DHT22;44308;50.810;0.284;2022-07-23T14:20:18;25.00;99.90
58517;DHT22;44308;50.810;0.284;2022-07-23T14:22:44;25.20;99.90
58517;DHT22;44308;50.810;0.284;2022-07-23T14:25:11;25.10;99.90
58517;DHT22;44308;50.810;0.284;2022-07-23T14:27:37;25.10;99.90
58517;DHT22;44308;50.810;0.284;2022-07-23T14:30:04;25.00;99.90
58517;DHT22;44308;50.810;0.284;2022-07-23T14:32:31;24.90;99.90
58517;DHT22;44308;50.810;0.284;2022-07-23T14:34:56;24.70;99.90
58517;DHT22;44308;50.810;0.284;2022-07-23T14:37:22;24.80;99.90
58517;DHT22;44308;50.810;0.284;2022-07-23T14:39:48;24.70;99.90
58517;DHT22;44308;50.810;0.284;2022-07-23T14:42:14;24.80;99.90
58517;DHT22;44308;50.810;0.284;2022-07-23T14:44:41;25.20;99.90
58517;DHT22;44308;50.810;0.284;2022-07-23T14:47:08;25.20;99.90
58517;DHT22;44308;50.810;0.284;2022-07-23T14:49:34;25.00;99.90
58517;DHT22;44308;50.810;0.284;2022-07-23T14:52:00;24.90;99.90
58517;DHT22;44308;50.810;0.284;2022-07-23T14:54:27;24.80;99.90
58517;DHT22;44308;50.810;0.284;2022-07-23T14:56:54;25.00;99.90
58517;DHT22;44308;50.810;0.284;2022-07-23T14:59:20;25.40;99.90
58517;DHT22;44308;50.810;0.284;2022-07-23T15:01:47;25.00;99.90
58517;DHT22;44308;50.810;0.284;2022-07-23T15:04:15;24.80;99.90
58517;DHT22;44308;50.810;0.284;2022-07-23T15:06:41;24.90;99.90
58517;DHT22;44308;50.810;0.284;2022-07-23T15:09:07;24.60;99.90
58517;DHT22;44308;50.810;0.284;2022-07-23T15:11:33;24.70;99.90
58517;DHT22;44308;50.810;0.284;2022-07-23T15:14:08;24.70;99.90
58517;DHT22;44308;50.810;0.284;2022-07-23T15:16:35;24.50;99.90
58517;DHT22;44308;50.810;0.284;2022-07-23T15:19:02;24.70;99.90
58517;DHT22;44308;50.810;0.284;2022-07-23T15:21:28;24.80;99.90
58517;DHT22;44308;50.810;0.284;2022-07-23T15:23:57;24.70;99.90
58517;DHT22;44308;50.810;0.284;2022-07-23T15:26:30;24.90;99.90
58517;DHT22;44308;50.810;0.284;2022-07-23T15:28:56;25.00;99.90
58517;DHT22;44308;50.810;0.284;2022-07-23T15:31:24;25.00;99.90
58517;DHT22;44308;50.810;0.284;2022-07-23T15:33:50;25.20;99.90
58517;DHT22;44308;50.810;0.284;2022-07-23T15:36:18;25.00;99.90
58517;DHT22;44308;50.810;0.284;2022-07-23T15:38:44;24.80;99.90
58517;DHT22;44308;50.810;0.284;2022-07-23T15:41:11;24.70;99.90
58517;DHT22;44308;50.810;0.284;2022-07-23T15:43:39;24.60;99.90
58517;DHT22;44308;50.810;0.284;2022-07-23T15:46:05;24.90;99.90
58517;DHT22;44308;50.810;0.284;2022-07-23T15:48:34;25.10;99.90
58517;DHT22;44308;50.810;0.284;2022-07-23T15:51:00;25.30;99.90
58517;DHT22;44308;50.810;0.284;2022-07-23T15:53:26;25.20;99.90
58517;DHT22;44308;50.810;0.284;2022-07-23T15:55:52;24.90;99.90
58517;DHT22;44308;50.810;0.284;2022-07-23T15:58:18;24.90;99.90
58517;DHT22;44308;50.810;0.284;2022-07-23T16:00:44;24.90;99.90
58517;DHT22;44308;50.810;0.284;2022-07-23T16:03:30;25.00;99.90
58517;DHT22;44308;50.810;0.284;2022-07-23T16:05:56;24.90;99.90
58517;DHT22;44308;50.810;0.284;2022-07-23T16:08:22;25.00;99.90
58517;DHT22;44308;50.810;0.284;2022-07-23T16:10:52;25.10;99.90
58517;DHT22;44308;50.810;0.284;2022-07-23T16:13:20;25.30;99.90
58517;DHT22;44308;50.810;0.284;2022-07-23T16:15:46;25.30;99.90
58517;DHT22;44308;50.810;0.284;2022-07-23T16:18:12;25.20;99.90